Time;durP1;ratioP1;P1;durP2;ratioP2;P2;SDS_P1;SDS_P2;PMS_P1;PMS_P2;Temp;Humidity;BMP_temperature;BMP_pressure;BME280_temperature;BME280_humidity;BME280_pressure;Samples;Min_cycle;Max_cycle;Signal;HPM_P1;HPM_P2
2023/01/03 00:04:29;;;;;;;4.25;1.15;;;;;;;10.55;88.62;100939.44;3465845;84;98549;-92
2023/01/03 00:09:30;;;;;;;2.13;1.03;;;;;;;10.51;88.80;100938.56;3473543;84;34039;-90
2023/01/03 00:14:35;;;;;;;2.70;1.20;;;;;;;10.48;89.06;100944.81;3459857;84;98529;-91
2023/01/03 00:19:43;;;;;;;2.17;0.90;;;;;;;10.44;89.20;100948.87;3470493;84;25908;-91
2023/01/03 00:24:46;;;;;;;1.98;1.02;;;;;;;10.38;89.38;100952.27;3468261;84;98776;-91
2023/01/03 00:29:47;;;;;;;2.70;1.20;;;;;;;10.31;89.53;100960.39;3473065;84;25935;-91
2023/01/03 00:34:48;;;;;;;1.72;0.90;;;;;;;10.24;89.66;100972.04;3462868;84;98788;-91
2023/01/03 00:39:49;;;;;;;2.03;1.10;;;;;;;10.15;89.87;100977.54;3484107;80;33176;-91
2023/01/03 00:44:50;;;;;;;2.20;0.80;;;;;;;10.08;90.08;100991.15;3465518;84;98698;-93
2023/01/03 00:49:51;;;;;;;2.97;1.13;;;;;;;10.03;90.08;101002.40;3477344;83;33080;-93
2023/01/03 00:54:51;;;;;;;2.73;0.87;;;;;;;9.95;90.23;101006.13;3466979;83;98622;-92
2023/01/03 00:59:52;;;;;;;1.80;0.80;;;;;;;9.87;90.43;101022.26;3459349;84;33120;-91
2023/01/03 01:04:53;;;;;;;2.13;0.87;;;;;;;9.79;90.58;101036.41;3472461;83;98410;-93
2023/01/03 01:09:54;;;;;;;1.56;1.00;;;;;;;9.73;90.82;101034.28;3470943;84;33182;-91
2023/01/03 01:14:55;;;;;;;2.43;0.90;;;;;;;9.64;90.95;101045.46;3474215;84;98054;-93
2023/01/03 01:19:56;;;;;;;2.67;1.17;;;;;;;9.58;91.07;101055.13;3479036;84;31417;-92
2023/01/03 01:24:57;;;;;;;4.97;1.43;;;;;;;9.52;91.54;101052.42;3474124;84;97989;-93
2023/01/03 01:29:57;;;;;;;2.40;1.13;;;;;;;9.47;91.74;101065.62;3475287;84;31475;-94
2023/01/03 01:34:58;;;;;;;2.47;1.12;;;;;;;9.44;92.12;101065.75;3480552;79;97974;-91
2023/01/03 01:39:59;;;;;;;2.20;1.30;;;;;;;9.40;92.22;101073.69;3478454;84;31398;-92
2023/01/03 01:45:04;;;;;;;4.57;1.40;;;;;;;9.36;92.37;101073.60;3469308;84;98014;-93
2023/01/03 01:50:33;;;;;;;3.17;1.47;;;;;;;9.33;92.38;101078.41;3472662;84;27650;-91
2023/01/03 01:55:39;;;;;;;3.75;1.50;;;;;;;9.34;92.57;101083.34;3469249;83;98371;-93
2023/01/03 02:00:42;;;;;;;1.95;1.12;;;;;;;9.30;92.66;101078.32;3476432;84;25627;-92
2023/01/03 02:05:48;;;;;;;2.90;1.30;;;;;;;9.29;92.69;101080.29;3461641;82;98731;-91
2023/01/03 02:11:18;;;;;;;2.70;1.23;;;;;;;9.28;92.89;101080.64;3469539;84;26762;-91
2023/01/03 02:16:49;;;;;;;2.70;1.40;;;;;;;9.27;92.98;101085.31;3469000;84;33628;-89
2023/01/03 02:22:13;;;;;;;5.20;1.90;;;;;;;9.26;93.16;101087.06;3471756;83;98432;-90
2023/01/03 02:27:40;;;;;;;4.60;2.12;;;;;;;9.25;93.95;101094.50;3469991;80;30275;-91
2023/01/03 02:33:14;;;;;;;6.15;2.80;;;;;;;9.25;94.94;101098.61;3465448;84;98197;-90
2023/01/03 02:38:48;;;;;;;8.85;3.77;;;;;;;9.26;95.75;101107.08;3471519;83;33882;-92
2023/01/03 02:43:54;;;;;;;8.88;4.92;;;;;;;9.27;96.77;101110.03;3465019;84;98606;-91
2023/01/03 02:49:06;;;;;;;10.25;4.10;;;;;;;9.28;97.74;101122.61;3481587;83;25645;-91
2023/01/03 02:54:12;;;;;;;8.85;3.83;;;;;;;9.27;98.68;101132.02;3463200;84;98680;-94
2023/01/03 02:59:18;;;;;;;13.95;6.35;;;;;;;9.26;98.84;101132.39;3481428;83;26077;-92
2023/01/03 03:04:20;;;;;;;9.03;3.90;;;;;;;9.28;99.04;101141.06;3473298;83;98647;-94
2023/01/03 03:09:21;;;;;;;8.80;3.60;;;;;;;9.26;99.53;101137.88;3468524;84;33101;-91
2023/01/03 03:14:44;;;;;;;8.10;3.23;;;;;;;9.26;99.27;101148.27;3470158;84;98177;-93
2023/01/03 03:25:16;;;;;;;7.70;2.67;;;;;;;9.26;99.15;101152.39;3467481;84;98302;-93
2023/01/03 03:30:21;;;;;;;9.33;3.15;;;;;;;9.27;99.28;101164.97;3471370;84;33103;-93
2023/01/03 03:35:24;;;;;;;6.83;2.75;;;;;;;9.25;99.05;101167.28;3460331;83;98529;-91
2023/01/03 03:45:55;;;;;;;5.90;2.43;;;;;;;9.18;99.50;101176.70;3462028;84;98428;-91
2023/01/03 03:51:04;;;;;;;5.87;2.60;;;;;;;9.15;99.52;101172.45;3468938;84;33123;-91
2023/01/03 03:56:16;;;;;;;6.90;2.47;;;;;;;9.12;99.50;101178.66;3473647;84;33667;-89
2023/01/03 04:01:20;;;;;;;6.47;2.83;;;;;;;9.07;99.46;101183.84;3465412;83;98528;-92
2023/01/03 04:06:27;;;;;;;7.28;2.80;;;;;;;9.03;99.56;101187.61;3491202;83;33116;-92
2023/01/03 04:11:28;;;;;;;7.42;2.52;;;;;;;8.99;99.55;101199.08;3486255;83;98099;-91
2023/01/03 04:16:28;;;;;;;9.10;3.47;;;;;;;8.91;99.78;101202.75;3494453;82;31582;-89
2023/01/03 04:21:29;;;;;;;8.07;3.10;;;;;;;8.82;99.66;101209.75;3487886;83;98285;-90
2023/01/03 04:26:30;;;;;;;6.80;2.80;;;;;;;8.73;99.61;101217.89;3496635;83;31572;-90
2023/01/03 04:31:31;;;;;;;6.30;2.45;;;;;;;8.62;99.65;101218.12;3493424;83;98209;-91
2023/01/03 04:36:32;;;;;;;8.03;2.37;;;;;;;8.53;99.50;101229.79;3492625;83;31473;-89
2023/01/03 04:41:32;;;;;;;5.30;2.63;;;;;;;8.44;99.59;101240.06;3487951;83;98071;-89
2023/01/03 04:46:39;;;;;;;6.40;2.77;;;;;;;8.22;99.42;101218.02;3493786;83;31563;-92
2023/01/03 04:51:39;;;;;;;7.85;2.55;;;;;;;8.23;99.36;101251.15;3490437;83;98198;-91
2023/01/03 04:56:40;;;;;;;7.80;2.93;;;;;;;8.13;99.38;101256.25;3490742;83;25591;-91
2023/01/03 05:01:50;;;;;;;5.30;2.25;;;;;;;8.00;99.45;101263.65;3483303;83;98532;-91
2023/01/03 05:06:44;;;;;;;9.33;2.92;;;;;;;7.88;99.58;101262.25;3486874;79;31429;-93
2023/01/03 05:11:44;;;;;;;5.60;2.57;;;;;;;7.74;99.27;101254.11;3468040;80;98632;-92
2023/01/03 05:16:45;;;;;;;5.63;2.10;;;;;;;7.62;99.21;101265.81;3475213;84;34708;-91
2023/01/03 05:27:05;;;;;;;7.53;2.35;;;;;;;7.42;99.08;101285.80;3475210;84;31573;-94
2023/01/03 05:32:06;;;;;;;6.87;2.47;;;;;;;7.36;99.62;101285.00;3473119;84;98721;-90
2023/01/03 05:37:07;;;;;;;8.03;2.77;;;;;;;7.31;99.67;101304.36;3479878;82;34594;-91
2023/01/03 05:42:08;;;;;;;7.47;2.70;;;;;;;7.25;99.58;101301.59;3465554;84;98363;-92
2023/01/03 05:47:08;;;;;;;7.50;3.10;;;;;;;7.16;99.73;101299.47;3473929;84;35287;-91
2023/01/03 05:52:09;;;;;;;7.07;3.00;;;;;;;7.06;99.75;101312.98;3474516;83;98278;-92
2023/01/03 05:57:10;;;;;;;6.80;3.27;;;;;;;6.98;99.69;101315.78;3493401;84;34783;-94
2023/01/03 06:02:11;;;;;;;7.65;3.50;;;;;;;6.88;99.71;101316.95;3473421;80;98485;-92
2023/01/03 06:07:12;;;;;;;6.55;3.00;;;;;;;6.82;99.60;101333.31;3484556;83;35284;-94
2023/01/03 06:12:12;;;;;;;8.77;3.10;;;;;;;6.72;99.29;101341.11;3502411;82;98407;-94
2023/01/03 06:22:25;;;;;;;10.35;3.33;;;;;;;6.58;98.86;101345.43;3457990;83;98473;-95
2023/01/03 06:27:26;;;;;;;6.73;2.53;;;;;;;6.51;98.75;101359.37;3461296;83;25751;-94
2023/01/03 06:32:27;;;;;;;7.47;3.07;;;;;;;6.43;98.56;101370.57;3487928;83;98064;-95
2023/01/03 06:37:27;;;;;;;6.77;2.40;;;;;;;6.35;98.40;101383.71;3498709;83;32242;-92
2023/01/03 06:42:38;;;;;;;6.97;2.53;;;;;;;6.29;98.50;101386.94;3488935;83;98990;-92
2023/01/03 06:53:13;;;;;;;7.97;2.77;;;;;;;6.18;98.33;101393.88;3508573;78;97756;-91
2023/01/03 06:58:14;;;;;;;11.20;5.05;;;;;;;6.11;98.29;101409.38;3498769;83;34684;-94
2023/01/03 07:03:15;;;;;;;7.03;2.63;;;;;;;6.10;98.35;101417.35;3497440;83;98415;-95
2023/01/03 07:08:16;;;;;;;6.30;2.47;;;;;;;6.04;97.97;101420.56;3498747;83;32253;-94
2023/01/03 07:18:35;;;;;;;8.50;2.60;;;;;;;5.91;97.96;101440.12;3500579;83;34700;-91
2023/01/03 07:23:37;;;;;;;6.00;2.17;;;;;;;5.81;97.69;101450.54;3486667;83;98343;-93
2023/01/03 07:28:38;;;;;;;11.15;2.02;;;;;;;5.75;97.90;101459.44;3497347;83;35104;-92
2023/01/03 07:33:39;;;;;;;4.77;1.90;;;;;;;5.68;97.40;101463.18;3466037;83;98922;-90
2023/01/03 07:38:42;;;;;;;7.50;2.30;;;;;;;5.64;97.29;101473.16;3493304;83;32370;-90
2023/01/03 07:43:47;;;;;;;7.97;2.20;;;;;;;5.60;97.18;101486.38;3466926;81;98510;-92
2023/01/03 07:48:51;;;;;;;6.20;1.95;;;;;;;5.56;97.47;101492.25;3502298;79;34768;-92
2023/01/03 07:53:52;;;;;;;6.37;2.10;;;;;;;5.54;97.07;101495.84;3484500;83;98355;-93
2023/01/03 07:58:54;;;;;;;8.57;2.10;;;;;;;5.48;96.83;101507.48;3500485;83;25682;-93
2023/01/03 08:03:54;;;;;;;7.55;1.90;;;;;;;5.45;96.90;101499.92;3483586;83;98636;-93
2023/01/03 08:14:14;;;;;;;7.97;2.50;;;;;;;5.44;96.76;101517.42;3452982;83;97582;-92
2023/01/03 08:19:15;;;;;;;9.30;2.23;;;;;;;5.46;96.66;101517.91;3462986;81;28169;-95
2023/01/03 08:24:16;;;;;;;9.40;2.30;;;;;;;5.52;96.53;101528.92;3450034;84;98498;-94
2023/01/03 08:29:16;;;;;;;4.70;2.20;;;;;;;5.62;96.46;101528.63;3458856;84;32296;-94
2023/01/03 08:34:19;;;;;;;7.87;1.87;;;;;;;5.78;96.47;101535.84;3450052;84;98315;-90
2023/01/03 08:39:23;;;;;;;10.03;2.57;;;;;;;5.97;96.17;101544.02;3458173;81;32206;-94
2023/01/03 08:44:25;;;;;;;8.93;2.55;;;;;;;6.14;95.68;101540.49;3449936;84;98485;-92
2023/01/03 08:49:26;;;;;;;10.20;3.10;;;;;;;6.27;95.21;101549.91;3466683;84;26091;-95
2023/01/03 08:54:27;;;;;;;8.53;2.90;;;;;;;6.31;94.98;101552.25;3460048;84;99040;-92
2023/01/03 08:59:28;;;;;;;8.70;2.90;;;;;;;6.34;94.64;101558.43;3460791;84;25588;-91
2023/01/03 09:04:28;;;;;;;13.05;3.25;;;;;;;6.32;94.18;101563.42;3443678;83;98303;-94
2023/01/03 09:09:30;;;;;;;7.73;2.63;;;;;;;6.31;94.36;101567.84;3477640;84;32334;-92
2023/01/03 09:14:30;;;;;;;10.57;2.57;;;;;;;6.30;94.01;101577.17;3465331;84;98693;-89
2023/01/03 09:19:31;;;;;;;6.93;2.13;;;;;;;6.28;93.94;101584.90;3479366;84;32438;-92
2023/01/03 09:24:32;;;;;;;9.10;2.20;;;;;;;6.28;93.84;101591.16;3463095;84;98070;-92
2023/01/03 09:29:33;;;;;;;10.03;2.23;;;;;;;6.30;93.72;101599.04;3471737;80;32376;-91
2023/01/03 09:34:34;;;;;;;9.05;2.35;;;;;;;6.37;93.65;101592.53;3427710;84;98574;-90
2023/01/03 09:39:35;;;;;;;8.77;2.47;;;;;;;6.47;93.69;101595.77;3472377;84;28300;-90
2023/01/03 09:44:38;;;;;;;9.35;2.50;;;;;;;6.54;92.98;101605.66;3464473;84;98339;-90
2023/01/03 09:49:39;;;;;;;8.55;2.37;;;;;;;6.59;93.02;101602.77;3463256;84;32358;-92
2023/01/03 10:05:34;;;;;;;11.63;2.60;;;;;;;6.72;92.31;101611.94;3437233;84;98156;-92
2023/01/03 10:11:00;;;;;;;10.50;2.60;;;;;;;6.71;91.86;101620.70;3473870;84;32308;-94
2023/01/03 10:16:21;;;;;;;5.12;1.80;;;;;;;6.80;91.84;101616.59;3474738;84;32301;-91
2023/01/03 10:21:39;;;;;;;11.18;2.08;;;;;;;6.81;91.02;101627.80;3467340;80;97264;-94
2023/01/03 10:26:40;;;;;;;10.90;2.10;;;;;;;6.83;91.01;101631.80;3477139;84;32278;-89
2023/01/03 10:32:20;;;;;;;8.37;2.00;;;;;;;6.85;90.45;101626.82;3469634;84;98915;-92
2023/01/03 10:37:23;;;;;;;8.95;2.40;;;;;;;6.86;90.00;101621.59;3475270;84;32281;-91
2023/01/03 10:42:27;;;;;;;10.85;1.87;;;;;;;6.90;89.97;101621.19;3468722;83;98241;-91
2023/01/03 10:47:28;;;;;;;7.85;1.80;;;;;;;6.89;89.06;101618.77;3474819;84;32316;-93
2023/01/03 10:52:33;;;;;;;5.83;1.60;;;;;;;6.85;88.57;101617.80;3470234;84;98266;-94
2023/01/03 10:57:57;;;;;;;9.90;2.00;;;;;;;6.85;88.46;101605.48;3476251;83;45477;-93
2023/01/03 11:03:16;;;;;;;5.60;1.80;;;;;;;6.83;88.09;101618.11;3474320;84;98789;-93
2023/01/03 11:08:22;;;;;;;5.45;1.80;;;;;;;6.82;87.61;101610.25;3474000;84;32868;-89
2023/01/03 11:13:29;;;;;;;4.83;1.85;;;;;;;6.84;87.21;101613.45;3463447;80;98199;-91
2023/01/03 11:18:30;;;;;;;9.73;2.80;;;;;;;6.90;87.51;101616.27;3426037;84;32317;-89
2023/01/03 11:23:58;;;;;;;8.03;1.43;;;;;;;7.02;87.79;101612.30;3372552;86;98358;-90
2023/01/03 11:29:42;;;;;;;7.70;1.30;;;;;;;7.11;86.25;101605.70;3461537;84;33130;-91
2023/01/03 11:35:28;;;;;;;7.15;1.52;;;;;;;7.18;86.36;101601.89;3457201;84;98057;-88
2023/01/03 11:40:40;;;;;;;8.33;1.57;;;;;;;7.26;85.96;101608.48;3459146;82;32663;-90
2023/01/03 11:46:08;;;;;;;5.33;1.80;;;;;;;7.28;85.00;101612.50;3459372;84;98367;-88
2023/01/03 11:51:44;;;;;;;5.83;1.63;;;;;;;7.23;84.94;101608.57;3460893;84;98411;-88
2023/01/03 11:56:46;;;;;;;27.32;9.03;;;;;;;7.19;84.80;101610.92;3423200;83;32252;-90
2023/01/03 12:02:08;;;;;;;37.80;13.30;;;;;;;7.10;84.96;101606.02;3467216;83;98751;-92
2023/01/03 12:07:14;;;;;;;47.60;18.05;;;;;;;7.07;84.61;101612.13;3457673;81;32361;-91
2023/01/03 12:12:38;;;;;;;57.38;21.95;;;;;;;7.06;84.91;101602.32;3468629;84;98957;-91
2023/01/03 12:17:55;;;;;;;4.80;1.62;;;;;;;7.12;85.17;101599.09;3474037;83;32266;-91
2023/01/03 12:23:17;;;;;;;5.55;1.40;;;;;;;7.25;83.42;101604.14;3470713;84;98607;-90
2023/01/03 12:28:40;;;;;;;7.12;1.82;;;;;;;7.30;83.02;101604.76;3475657;84;32814;-91
2023/01/03 12:34:04;;;;;;;6.78;2.40;;;;;;;7.26;82.25;101612.01;3462057;84;98443;-91
2023/01/03 12:39:48;;;;;;;7.78;1.65;;;;;;;7.21;82.17;101619.61;3466335;84;32378;-91
2023/01/03 12:44:57;;;;;;;8.25;2.15;;;;;;;7.14;81.95;101619.31;3463898;84;98435;-90
2023/01/03 12:50:44;;;;;;;5.95;1.70;;;;;;;7.09;82.08;101612.05;3472033;82;32333;-91
2023/01/03 12:55:54;;;;;;;5.65;1.95;;;;;;;7.04;82.88;101611.43;3460053;83;98410;-91
2023/01/03 13:01:05;;;;;;;3.52;1.30;;;;;;;7.04;82.88;101611.43;3480856;80;26880;-90
2023/01/03 13:06:17;;;;;;;11.78;2.45;;;;;;;7.04;82.78;101606.74;3436970;84;32960;-90
2023/01/03 13:11:45;;;;;;;8.25;1.52;;;;;;;7.04;83.27;101613.59;3378161;86;98572;-91
2023/01/03 13:16:48;;;;;;;5.00;1.30;;;;;;;6.98;81.81;101613.52;3444074;84;32205;-89
2023/01/03 13:22:01;;;;;;;6.30;1.82;;;;;;;6.92;81.09;101612.08;3436104;84;98521;-91
2023/01/03 13:27:21;;;;;;;10.50;2.00;;;;;;;6.85;81.05;101613.69;3442771;84;32279;-88
2023/01/03 13:32:25;;;;;;;6.78;1.70;;;;;;;6.79;80.99;101614.98;3439474;84;99577;-89
2023/01/03 13:37:46;;;;;;;6.28;1.50;;;;;;;6.71;81.45;101626.75;3413422;84;32306;-91
2023/01/03 13:43:03;;;;;;;3.47;1.50;;;;;;;6.66;81.54;101629.06;3428601;84;98630;-91
2023/01/03 13:48:29;;;;;;;5.83;1.95;;;;;;;6.60;81.48;101633.67;3417147;84;27313;-90
2023/01/03 13:53:39;;;;;;;9.05;1.90;;;;;;;6.55;81.74;101626.98;3370202;83;97776;-89
2023/01/03 13:59:00;;;;;;;9.40;1.67;;;;;;;6.47;81.78;101632.69;3378462;86;32251;-91
2023/01/03 14:04:12;;;;;;;13.03;3.87;;;;;;;6.42;82.26;101635.58;3370219;86;98605;-94
2023/01/03 14:09:52;;;;;;;8.58;2.30;;;;;;;6.32;82.20;101631.78;3341214;86;32958;-94
2023/01/03 14:14:56;;;;;;;7.70;2.12;;;;;;;6.23;82.71;101636.99;3393511;85;98390;-93
2023/01/03 14:20:08;;;;;;;7.37;2.55;;;;;;;6.12;82.65;101641.94;3397870;85;32299;-92
2023/01/03 14:25:36;;;;;;;9.35;3.12;;;;;;;6.04;82.88;101648.74;3359809;87;98605;-90
2023/01/03 14:30:39;;;;;;;8.13;2.25;;;;;;;5.95;83.17;101658.86;3395489;85;32283;-94
2023/01/03 14:35:41;;;;;;;9.73;2.70;;;;;;;5.83;83.32;101667.64;3378603;85;98054;-91
2023/01/03 14:40:45;;;;;;;12.93;3.33;;;;;;;5.74;83.57;101663.24;3395916;85;32263;-90
2023/01/03 14:45:56;;;;;;;6.25;2.47;;;;;;;5.65;84.07;101670.03;3355125;85;98309;-90
2023/01/03 14:51:01;;;;;;;9.50;3.65;;;;;;;5.56;84.16;101676.00;3387235;85;32222;-88
2023/01/03 14:56:02;;;;;;;11.25;3.87;;;;;;;5.45;84.69;101677.96;3389391;85;32258;-90
2023/01/03 15:01:07;;;;;;;15.13;4.37;;;;;;;5.35;85.02;101677.64;3379263;85;98313;-90
2023/01/03 15:06:24;;;;;;;9.38;3.55;;;;;;;5.26;85.35;101681.44;3386978;84;32300;-89
2023/01/03 15:11:54;;;;;;;10.18;3.90;;;;;;;5.17;85.65;101681.92;3438180;84;98593;-89
2023/01/03 15:16:42;;;;;;;10.23;3.90;;;;;;;5.05;85.98;101687.14;3447608;83;32268;-88
2023/01/03 15:21:43;;;;;;;13.70;5.07;;;;;;;4.94;86.08;101689.31;3438993;84;98806;-88
2023/01/03 15:26:48;;;;;;;20.47;6.97;;;;;;;4.85;86.36;101689.80;3414218;84;25942;-91
2023/01/03 15:31:59;;;;;;;17.65;6.15;;;;;;;4.78;86.61;101692.14;3401079;84;98375;-90
2023/01/03 15:37:16;;;;;;;14.18;5.53;;;;;;;4.70;86.93;101694.22;3449671;84;32263;-91
2023/01/03 15:47:47;;;;;;;15.32;6.90;;;;;;;4.53;87.59;101702.24;3413222;84;33076;-90
2023/01/03 15:52:48;;;;;;;15.72;6.28;;;;;;;4.43;88.03;101694.28;3444085;84;98601;-91
2023/01/03 15:57:52;;;;;;;10.67;3.50;;;;;;;4.35;88.30;101714.09;3462483;84;25937;-93
2023/01/03 16:02:53;;;;;;;11.00;3.90;;;;;;;4.23;88.37;101701.54;3453964;83;98974;-92
2023/01/03 16:07:54;;;;;;;9.67;3.60;;;;;;;4.16;88.73;101711.23;3464944;83;25758;-90
2023/01/03 16:12:55;;;;;;;16.10;5.63;;;;;;;4.11;89.07;101720.86;3460098;83;98268;-95
2023/01/03 16:17:55;;;;;;;14.10;5.33;;;;;;;4.02;88.96;101728.11;3463888;84;25607;-95
2023/01/03 16:22:56;;;;;;;13.00;5.60;;;;;;;3.95;89.37;101727.17;3458746;84;98392;-90
2023/01/03 16:27:57;;;;;;;14.30;5.93;;;;;;;3.90;89.67;101740.05;3469091;79;25660;-93
2023/01/03 16:32:58;;;;;;;15.83;6.23;;;;;;;3.82;89.83;101736.11;3454008;83;98828;-94
2023/01/03 16:37:58;;;;;;;16.75;7.92;;;;;;;3.74;89.97;101731.91;3456916;84;26062;-93
2023/01/03 16:42:59;;;;;;;25.67;11.23;;;;;;;3.64;90.36;101732.91;3453921;84;98649;-93
2023/01/03 16:48:00;;;;;;;21.83;9.77;;;;;;;3.56;90.60;101739.02;3462555;84;33017;-92
2023/01/03 16:53:02;;;;;;;21.00;8.73;;;;;;;3.52;90.82;101746.73;3452687;84;99014;-94
2023/01/03 16:58:03;;;;;;;139.83;71.43;;;;;;;3.44;91.07;101739.27;3425428;84;33032;-94
2023/01/03 17:03:04;;;;;;;37.37;22.77;;;;;;;3.39;91.43;101746.14;3441791;84;98841;-91
2023/01/03 17:08:14;;;;;;;48.30;28.97;;;;;;;3.18;91.37;101730.68;3449280;84;33395;-92
2023/01/03 17:13:32;;;;;;;48.60;26.55;;;;;;;3.23;91.65;101755.08;3428940;84;98998;-92
2023/01/03 17:18:39;;;;;;;45.03;21.97;;;;;;;3.05;91.88;101738.23;3450649;80;26067;-91
2023/01/03 17:23:41;;;;;;;60.90;28.67;;;;;;;3.08;92.00;101752.63;3446777;83;98618;-90
2023/01/03 17:28:43;;;;;;;39.40;18.45;;;;;;;2.97;91.96;101752.52;3451141;84;26243;-90
2023/01/03 17:33:44;;;;;;;33.87;15.10;;;;;;;2.89;92.49;101752.37;3444902;84;98928;-89
2023/01/03 17:38:45;;;;;;;34.67;16.30;;;;;;;2.82;92.55;101762.23;3451733;84;33512;-89
2023/01/03 17:43:46;;;;;;;28.10;15.97;;;;;;;2.75;92.67;101771.31;3446762;84;98558;-90
2023/01/03 17:54:08;;;;;;;26.48;13.80;;;;;;;2.57;93.11;101777.52;3450053;84;98827;-90
2023/01/03 17:59:13;;;;;;;31.62;15.60;;;;;;;2.51;93.17;101778.68;3457008;84;25714;-90
2023/01/03 18:04:13;;;;;;;59.18;26.82;;;;;;;2.45;93.34;101785.81;3448401;84;99112;-91
2023/01/03 18:09:15;;;;;;;44.13;21.53;;;;;;;2.37;93.43;101791.91;3466563;80;33063;-92
2023/01/03 18:14:15;;;;;;;36.07;17.33;;;;;;;2.30;93.49;101795.52;3471372;83;98414;-91
2023/01/03 18:19:16;;;;;;;27.43;14.33;;;;;;;2.22;93.48;101800.22;3472369;84;33543;-91
2023/01/03 18:24:22;;;;;;;25.47;13.00;;;;;;;2.17;93.93;101801.62;3464943;84;98846;-90
2023/01/03 18:29:23;;;;;;;29.20;13.98;;;;;;;2.17;94.60;101802.45;3473114;84;25888;-92
2023/01/03 18:34:37;;;;;;;29.10;13.73;;;;;;;2.17;95.20;101802.45;3445870;84;98592;-84
2023/01/03 18:39:38;;;;;;;31.15;15.13;;;;;;;2.22;96.01;101805.64;3465699;84;25664;-85
2023/01/03 18:44:40;;;;;;;24.03;13.07;;;;;;;2.25;96.32;101808.59;3466656;84;98820;-85
2023/01/03 18:49:41;;;;;;;24.87;12.17;;;;;;;2.28;96.34;101813.46;3470370;84;33021;-85
2023/01/03 18:54:42;;;;;;;20.77;10.57;;;;;;;2.35;96.36;101807.13;3465334;84;98420;-85
2023/01/03 18:59:44;;;;;;;23.10;13.37;;;;;;;2.42;96.62;101809.51;3473194;84;33448;-87
2023/01/03 19:04:46;;;;;;;21.63;10.60;;;;;;;2.47;96.43;101814.89;3468319;81;97953;-94
2023/01/03 19:09:47;;;;;;;23.40;10.63;;;;;;;2.51;96.40;101813.22;3472405;84;33000;-91
2023/01/03 19:14:49;;;;;;;24.60;9.80;;;;;;;2.55;96.34;101820.48;3421545;84;98297;-92
2023/01/03 19:19:50;;;;;;;22.85;10.40;;;;;;;2.62;96.62;101805.20;3466408;84;25580;-94
2023/01/03 19:24:54;;;;;;;26.83;10.30;;;;;;;2.67;96.49;101807.86;3466521;84;98571;-94
2023/01/03 19:29:54;;;;;;;22.82;10.32;;;;;;;2.72;96.39;101807.77;3469367;84;25929;-95
2023/01/03 19:34:56;;;;;;;28.83;13.80;;;;;;;2.75;96.38;101810.73;3472977;84;98265;-95
2023/01/03 19:39:56;;;;;;;22.17;11.00;;;;;;;2.80;96.24;101810.64;3478178;84;33034;-95
2023/01/03 19:44:59;;;;;;;23.93;10.83;;;;;;;2.80;96.24;101810.64;3479487;84;98615;-96
2023/01/03 19:50:05;;;;;;;56.23;28.10;;;;;;;2.88;96.15;101814.62;3487816;84;32955;-95
2023/01/03 19:55:09;;;;;;;42.65;22.30;;;;;;;2.87;95.75;101826.07;3471138;80;97541;-94
2023/01/03 20:00:27;;;;;;;28.17;15.48;;;;;;;2.84;95.51;101814.97;3452650;84;26271;-93
2023/01/03 20:05:35;;;;;;;28.10;15.80;;;;;;;2.83;95.37;101806.53;3450011;82;98486;-92
2023/01/03 20:10:39;;;;;;;25.23;11.75;;;;;;;2.76;95.25;101802.83;3473392;84;25608;-95
2023/01/03 20:15:42;;;;;;;20.95;10.98;;;;;;;2.70;95.22;101804.00;3452739;84;98424;-94
2023/01/03 20:20:43;;;;;;;22.58;13.22;;;;;;;2.63;95.25;101796.73;3475886;83;25973;-95
2023/01/03 20:25:45;;;;;;;28.07;15.83;;;;;;;2.55;95.14;101812.33;3469469;84;98695;-92
2023/01/03 20:30:46;;;;;;;20.50;13.40;;;;;;;2.49;95.14;101814.03;3487046;83;32990;-94
2023/01/03 20:35:47;;;;;;;24.70;12.33;;;;;;;2.40;95.39;101822.02;3471708;84;98724;-94
2023/01/03 20:40:48;;;;;;;22.67;11.80;;;;;;;2.33;95.33;101821.56;3474290;84;32993;-93
2023/01/03 20:45:54;;;;;;;22.50;10.90;;;;;;;2.26;95.26;101816.20;3469879;80;98740;-93
2023/01/03 20:50:55;;;;;;;24.40;10.65;;;;;;;2.18;95.30;101825.00;3361767;87;25650;-94
2023/01/03 20:55:56;;;;;;;17.67;8.87;;;;;;;2.13;95.68;101823.69;3467270;84;98497;-95
2023/01/03 21:00:57;;;;;;;29.20;13.77;;;;;;;2.11;95.92;101820.43;3479707;84;32974;-95
2023/01/03 21:05:58;;;;;;;26.63;11.50;;;;;;;2.04;95.83;101814.53;3478487;84;98530;-96
2023/01/03 21:10:59;;;;;;;23.00;11.03;;;;;;;2.02;96.12;101824.88;3476328;83;33108;-96
2023/01/03 21:15:59;;;;;;;34.57;16.50;;;;;;;1.96;95.88;101824.11;3475673;84;98485;-93
2023/01/03 21:21:05;;;;;;;26.93;13.47;;;;;;;1.92;96.21;101820.34;3466559;84;98509;-90
2023/01/03 21:26:06;;;;;;;28.33;13.37;;;;;;;1.92;96.59;101813.55;3402135;85;25596;-94
2023/01/03 21:31:16;;;;;;;29.50;14.87;;;;;;;1.91;96.51;101813.86;3400108;84;98557;-95
2023/01/03 21:36:24;;;;;;;30.72;16.35;;;;;;;1.88;96.64;101823.38;3471021;81;25594;-92
2023/01/03 21:41:28;;;;;;;30.23;17.02;;;;;;;1.87;96.64;101830.45;3462119;84;98863;-92
2023/01/03 21:46:31;;;;;;;29.48;16.02;;;;;;;1.83;96.93;101827.50;3467335;84;25801;-91
2023/01/03 21:51:32;;;;;;;27.60;14.53;;;;;;;1.83;97.10;101833.46;3468269;84;98745;-89
2023/01/03 21:56:36;;;;;;;29.00;16.67;;;;;;;1.84;97.35;101828.29;3463147;84;33047;-92
2023/01/03 22:04:14;;;;;;;35.58;17.67;;;;;;;1.84;97.52;101827.75;3468486;84;98821;-96
2023/01/03 22:06:38;;;;;;;55.78;25.97;;;;;;;1.83;97.70;101826.14;3459636;84;25934;-95
2023/01/03 22:11:39;;;;;;;74.53;32.50;;;;;;;1.85;97.68;101824.47;3475085;83;99016;-94
2023/01/03 22:16:40;;;;;;;72.30;31.53;;;;;;;1.83;97.54;101825.32;3464389;84;32974;-89
2023/01/03 22:21:40;;;;;;;94.25;42.00;;;;;;;1.83;97.54;101825.32;3437432;84;98525;-89
2023/01/03 22:26:41;;;;;;;59.93;27.80;;;;;;;1.81;97.74;101813.95;3471107;80;33101;-90
2023/01/03 22:31:45;;;;;;;63.90;30.63;;;;;;;1.77;97.56;101815.60;3458307;84;99029;-90
2023/01/03 22:36:46;;;;;;;53.47;26.17;;;;;;;1.72;97.36;101819.72;3466878;84;33100;-89
2023/01/03 22:41:47;;;;;;;50.37;25.53;;;;;;;1.66;97.46;101819.50;3460552;84;98832;-89
2023/01/03 22:46:47;;;;;;;57.47;26.97;;;;;;;1.58;97.32;101818.77;3463711;84;33046;-90
2023/01/03 22:51:48;;;;;;;47.80;24.20;;;;;;;1.50;97.06;101824.25;3459906;84;98792;-89
2023/01/03 22:56:49;;;;;;;48.90;24.20;;;;;;;1.42;97.09;101830.82;3467763;84;33600;-90
2023/01/03 23:01:50;;;;;;;48.90;24.33;;;;;;;1.31;96.97;101823.84;3436772;84;99005;-89
2023/01/03 23:06:52;;;;;;;50.57;25.97;;;;;;;1.22;97.03;101823.61;3463479;84;32108;-89
2023/01/03 23:22:31;;;;;;;63.70;30.68;;;;;;;0.99;96.95;101797.75;3449486;84;98806;-88
2023/01/03 23:27:32;;;;;;;85.87;37.63;;;;;;;0.91;97.11;101783.42;3466604;84;32992;-89
2023/01/03 23:32:32;;;;;;;63.70;31.33;;;;;;;0.84;97.13;101774.80;3464183;84;98802;-88
2023/01/03 23:37:33;;;;;;;89.55;41.75;;;;;;;0.77;97.45;101779.16;3464409;84;33157;-88
2023/01/03 23:42:34;;;;;;;105.20;44.20;;;;;;;0.72;97.31;101782.45;3457966;84;98816;-89
2023/01/03 23:47:35;;;;;;;126.77;52.57;;;;;;;0.62;97.37;101781.94;3468436;82;31208;-88
2023/01/03 23:52:35;;;;;;;126.30;51.30;;;;;;;0.54;97.39;101776.29;3461309;84;98900;-87
2023/01/03 23:57:36;;;;;;;99.57;44.17;;;;;;;0.47;97.58;101781.20;3467995;84;30329;-89
